This is the latest recevied weather packets stored in our database for station/object K1ABC. If no packets are shown the sender has not sent any weather packets the latest 10 day(s).
| Time | Temp. | Humidity | Pressure | Rain* | Wind** | Luminosity | Snow |
|---|---|---|---|---|---|---|---|
| 1777640735 | 11.11° C | 63% | 1008.9 hPa | 0 mm | - | - | - |
| 1777639350 | 10.56° C | 71% | 1008.9 hPa | 0 mm | - | - | - |
| 1777639219 | 10.56° C | 69% | 1008.9 hPa | 0 mm | - | - | - |
| 1777637927 | 10° C | 71% | 1008.7 hPa | 0 mm | - | - | - |
| 1777637230 | 9.44° C | 76% | 1008.6 hPa | 0 mm | - | - | - |
| 1777637106 | 9.44° C | 77% | 1008.6 hPa | 0 mm | - | - | - |
| 1777635369 | 8.33° C | 82% | 1008.3 hPa | 0 mm | - | - | - |
| 1777635245 | 8.33° C | 81% | 1008.3 hPa | 0 mm | - | - | - |
| 1777632099 | 6.11° C | 86% | 1008.4 hPa | 0 mm | - | - | - |
| 1777628608 | 6.11° C | 87% | 1008.1 hPa | 0 mm | - | - | - |
| 1777628042 | 6.11° C | 87% | 1008 hPa | 0 mm | - | - | - |
| 1777627793 | 6.11° C | 87% | 1007.9 hPa | 0 mm | - | - | - |
| 1777626668 | 6.11° C | 87% | 1007.8 hPa | 0 mm | - | - | - |
| 1777626538 | 6.11° C | 87% | 1007.8 hPa | 0 mm | - | - | - |
| 1777626282 | 6.11° C | 87% | 1007.7 hPa | 0 mm | - | - | - |
| 1777624301 | 7.22° C | 85% | 1007.4 hPa | 0 mm | - | - | - |
| 1777623842 | 7.22° C | 86% | 1007.4 hPa | 0 mm | - | - | - |
| 1777622838 | 7.22° C | 86% | 1007.2 hPa | 0 mm | - | - | - |
| 1777622385 | 7.22° C | 86% | 1007.2 hPa | 0 mm | - | - | - |
| 1777621936 | 7.22° C | 86% | 1007.1 hPa | 0 mm | - | - | - |
| 1777621685 | 7.22° C | 86% | 1007.1 hPa | 0 mm | - | - | - |
| 1777621436 | 7.22° C | 87% | 1007.1 hPa | 0 mm | - | - | - |
| 1777621111 | 7.78° C | 86% | 1007.1 hPa | 0 mm | - | - | - |
| 1777620458 | 7.78° C | 87% | 1007 hPa | 0 mm | - | - | - |
| 1777619496 | 7.78° C | 90% | 1007 hPa | 0 mm | - | - | - |
* Rain latest hour (hover to see other rain measurements)
** Current wind speed in m/s (hover to see current wind gust speed)